Terminal Aerodrome Forecast
Issued by NWS

Home | Current Version | Previous Version | Text Only | Print | Product List | Glossary On
Versions: 1 2 3 4 5 6 7 8 9 10 11 12 13 14 15 16 17 18 19 20 21 22 23
000
FTUS44 KMAF 061200 AAA
TAFCNM
TAF AMD
KCNM 061251Z 0613/0712 VRB04KT 2SM BR SKC
      TEMPO 0613/0616 1/4SM FZFG VV001
     FM061600 14007KT P6SM FEW250=

USA.gov is the U.S. government's official web portal to all federal, state and local government web resources and services.